Terminal Aerodrome Forecast
Issued by NWS

Home | Current Version | Previous Version | Text Only | Print | Product List | Glossary On
Versions: 1 2 3 4 5 6 7 8 9 10 11 12 13 14 15 16 17 18 19 20 21 22 23 24 25 26 27 28 29 30 31 32 33 34 35 36 37 38 39
000
FTUS42 KMFL 221506 AAA
TAFFXE
TAF AMD
KFXE 221506Z 2215/2312 35005KT P6SM FEW025 SCT100
     FM221800 05006KT P6SM VCSH SCT030 BKN200
     FM222000 10008KT P6SM VCTS SCT025CB BKN035
     FM230000 01005KT P6SM VCSH SCT030 BKN045=

USA.gov is the U.S. government's official web portal to all federal, state and local government web resources and services.